createdAt,value
2018-12-05T00:00:52.607Z,2.03
2018-12-05T00:03:20.056Z,2.00
2018-12-05T00:05:47.955Z,2.00
2018-12-05T00:08:15.406Z,2.83
2018-12-05T00:10:43.095Z,3.17
2018-12-05T00:13:10.599Z,2.37
2018-12-05T00:15:38.043Z,3.17
2018-12-05T00:18:05.501Z,1.93
2018-12-05T00:20:33.061Z,1.70
2018-12-05T00:23:00.501Z,2.20
2018-12-05T00:25:27.963Z,1.77
2018-12-05T00:27:55.416Z,2.43
2018-12-05T00:30:23.615Z,3.20
2018-12-05T00:32:51.143Z,2.33
2018-12-05T00:35:18.619Z,1.93
2018-12-05T00:37:46.128Z,1.90
2018-12-05T00:40:13.644Z,1.87
2018-12-05T00:42:41.099Z,2.33
2018-12-05T00:45:08.678Z,2.23
2018-12-05T00:47:36.118Z,2.13
2018-12-05T00:50:03.976Z,1.83
2018-12-05T00:52:31.433Z,3.10
2018-12-05T00:54:58.896Z,1.70
2018-12-05T00:57:26.343Z,1.77
2018-12-05T00:59:53.804Z,2.87
2018-12-05T01:02:21.287Z,2.07
2018-12-05T01:04:49.249Z,2.50
2018-12-05T01:07:16.737Z,2.00
2018-12-05T01:09:44.247Z,2.20
2018-12-05T01:12:11.695Z,3.10
2018-12-05T01:14:39.191Z,2.33
2018-12-05T01:17:06.619Z,2.47
2018-12-05T01:19:34.067Z,2.50
2018-12-05T01:22:01.530Z,2.20
2018-12-05T01:24:28.963Z,2.30
2018-12-05T01:26:56.446Z,1.93
2018-12-05T01:29:23.904Z,2.67
2018-12-05T01:31:51.363Z,1.87
2018-12-05T01:34:18.804Z,2.30
2018-12-05T01:36:46.253Z,2.77
2018-12-05T01:39:13.723Z,2.17
2018-12-05T01:41:41.191Z,2.47
2018-12-05T01:44:08.652Z,2.00
2018-12-05T01:46:36.207Z,1.73
2018-12-05T01:49:03.687Z,2.37
2018-12-05T01:51:31.231Z,1.90
2018-12-05T01:53:58.771Z,2.23
2018-12-05T01:56:26.244Z,2.03
2018-12-05T01:58:53.691Z,3.17
2018-12-05T02:01:21.144Z,1.40
2018-12-05T02:03:48.619Z,2.40
2018-12-05T02:06:16.240Z,2.93
2018-12-05T02:08:43.698Z,1.90
2018-12-05T02:11:11.217Z,1.87
2018-12-05T02:13:38.721Z,2.27
2018-12-05T02:16:06.211Z,1.97
2018-12-05T02:18:33.648Z,2.50
2018-12-05T02:21:01.123Z,2.27
2018-12-05T02:23:28.583Z,2.27
2018-12-05T02:25:56.035Z,2.40
2018-12-05T02:28:23.475Z,2.47
2018-12-05T02:30:50.908Z,1.97
2018-12-05T02:33:18.427Z,1.70
2018-12-05T02:35:45.873Z,2.07
2018-12-05T02:38:13.310Z,2.53
2018-12-05T02:40:40.783Z,2.20
2018-12-05T02:43:08.246Z,2.00
2018-12-05T02:45:35.716Z,1.60
2018-12-05T02:48:03.219Z,2.73
2018-12-05T02:50:30.811Z,1.80
2018-12-05T02:52:58.462Z,2.47
2018-12-05T02:55:25.976Z,1.93
2018-12-05T02:57:53.594Z,2.60
2018-12-05T03:00:21.031Z,2.90
2018-12-05T03:02:48.503Z,1.97
2018-12-05T03:05:15.966Z,1.40
2018-12-05T03:07:43.407Z,2.67
2018-12-05T03:10:11.086Z,1.73
2018-12-05T03:12:38.523Z,2.33
2018-12-05T03:15:05.963Z,2.30
2018-12-05T03:17:33.528Z,1.93
2018-12-05T03:20:00.999Z,2.20
2018-12-05T03:22:28.521Z,2.63
2018-12-05T03:24:55.994Z,1.60
2018-12-05T03:27:23.605Z,2.40
2018-12-05T03:29:51.087Z,1.83
2018-12-05T03:32:18.541Z,1.80
2018-12-05T03:34:46.070Z,2.00
2018-12-05T03:37:13.529Z,2.53
2018-12-05T03:39:40.991Z,2.43
2018-12-05T03:42:08.586Z,2.70
2018-12-05T03:44:36.076Z,2.23
2018-12-05T03:47:03.571Z,1.80
2018-12-05T03:49:31.155Z,2.27
2018-12-05T03:51:58.599Z,1.87
2018-12-05T03:54:26.052Z,2.43
2018-12-05T03:56:53.902Z,2.77
2018-12-05T03:59:21.348Z,2.10
2018-12-05T04:01:48.806Z,2.30
2018-12-05T04:04:16.254Z,2.17
2018-12-05T04:06:43.732Z,2.23
2018-12-05T04:09:11.167Z,2.23
2018-12-05T04:11:38.599Z,2.70
2018-12-05T04:14:06.051Z,1.70
2018-12-05T04:16:33.483Z,1.50
2018-12-05T04:19:01.026Z,2.23
2018-12-05T04:21:28.791Z,2.30
2018-12-05T04:23:56.228Z,1.97
2018-12-05T04:26:23.685Z,2.10
2018-12-05T04:28:51.268Z,1.80
2018-12-05T04:31:18.715Z,2.23
2018-12-05T04:33:46.176Z,1.73
2018-12-05T04:36:13.630Z,2.53
2018-12-05T04:38:41.185Z,2.30
2018-12-05T04:41:08.651Z,2.07
2018-12-05T04:43:36.090Z,2.07
2018-12-05T04:46:03.568Z,1.70
2018-12-05T04:48:31.007Z,2.17
2018-12-05T04:50:58.560Z,1.90
2018-12-05T04:53:26.118Z,2.43
2018-12-05T04:55:53.707Z,2.23
2018-12-05T04:58:21.143Z,1.80
2018-12-05T05:00:48.595Z,1.87
2018-12-05T05:03:16.120Z,1.70
2018-12-05T05:05:43.636Z,1.93
2018-12-05T05:08:11.079Z,2.83
2018-12-05T05:10:38.524Z,2.33
2018-12-05T05:13:06.007Z,2.50
2018-12-05T05:15:33.439Z,1.70
2018-12-05T05:18:00.894Z,2.53
2018-12-05T05:20:28.335Z,2.40
2018-12-05T05:22:55.924Z,1.93
2018-12-05T05:25:23.405Z,1.83
2018-12-05T05:27:50.919Z,2.63
2018-12-05T05:30:18.383Z,2.10
2018-12-05T05:32:47.716Z,3.23
2018-12-05T05:35:15.159Z,1.80
2018-12-05T05:37:42.599Z,2.37
2018-12-05T05:40:10.136Z,2.63
2018-12-05T05:42:37.662Z,2.00
2018-12-05T05:45:05.095Z,2.03
2018-12-05T05:47:32.544Z,1.80
2018-12-05T05:49:59.991Z,2.23
2018-12-05T05:52:27.487Z,3.10
2018-12-05T05:54:54.931Z,2.20
2018-12-05T05:57:22.388Z,2.53
2018-12-05T05:59:49.855Z,1.70
2018-12-05T06:02:17.420Z,1.87
2018-12-05T06:04:44.967Z,2.00
2018-12-05T06:07:12.414Z,1.50
2018-12-05T06:09:39.896Z,1.93
2018-12-05T06:12:07.697Z,2.43
2018-12-05T06:14:35.242Z,1.70
2018-12-05T06:17:02.764Z,1.60
2018-12-05T06:19:30.223Z,2.03
2018-12-05T06:21:57.671Z,2.03
2018-12-05T06:24:25.115Z,1.77
2018-12-05T06:26:52.774Z,1.90
2018-12-05T06:29:20.263Z,2.07
2018-12-05T06:31:47.715Z,2.10
2018-12-05T06:34:15.279Z,2.10
2018-12-05T06:36:42.730Z,2.30
2018-12-05T06:39:10.295Z,2.20
2018-12-05T06:41:37.855Z,1.60
2018-12-05T06:44:05.309Z,3.00
2018-12-05T06:46:32.811Z,2.43
2018-12-05T06:49:00.255Z,2.43
2018-12-05T06:51:27.780Z,2.00
2018-12-05T06:53:55.240Z,2.20
2018-12-05T06:56:22.675Z,1.80
2018-12-05T06:58:50.155Z,2.13
2018-12-05T07:01:17.619Z,1.63
2018-12-05T07:03:45.075Z,1.93
2018-12-05T07:06:12.512Z,3.73
2018-12-05T07:08:39.968Z,1.93
2018-12-05T07:11:07.488Z,2.57
2018-12-05T07:13:34.934Z,2.53
2018-12-05T07:16:02.459Z,1.83
2018-12-05T07:18:30.025Z,2.10
2018-12-05T07:20:57.489Z,3.80
2018-12-05T07:23:24.939Z,2.07
2018-12-05T07:25:52.455Z,2.30
2018-12-05T07:28:19.895Z,2.23
2018-12-05T07:30:47.436Z,3.00
2018-12-05T07:33:14.879Z,2.93
2018-12-05T07:35:42.336Z,1.77
2018-12-05T07:38:09.887Z,2.20
2018-12-05T07:40:37.433Z,2.30
2018-12-05T07:43:04.891Z,2.60
2018-12-05T07:45:32.327Z,2.00
2018-12-05T07:47:59.802Z,2.10
2018-12-05T07:50:27.233Z,2.53
2018-12-05T07:52:54.716Z,2.37
2018-12-05T07:55:22.191Z,1.97
2018-12-05T07:57:49.636Z,2.00
2018-12-05T08:00:17.103Z,2.43
2018-12-05T08:02:44.664Z,2.00
2018-12-05T08:05:12.108Z,2.17
2018-12-05T08:07:39.560Z,2.73
2018-12-05T08:10:07.015Z,2.40
2018-12-05T08:12:34.452Z,1.93
2018-12-05T08:15:01.891Z,2.20
2018-12-05T08:17:29.407Z,2.90
2018-12-05T08:19:56.897Z,2.13
2018-12-05T08:22:24.607Z,2.23
2018-12-05T08:24:52.047Z,2.77
2018-12-05T08:27:19.544Z,2.67
2018-12-05T08:29:47.008Z,2.60
2018-12-05T08:32:14.786Z,2.63
2018-12-05T08:34:42.224Z,2.90
2018-12-05T08:37:09.779Z,3.80
2018-12-05T08:39:37.247Z,2.20
2018-12-05T08:42:04.691Z,2.47
2018-12-05T08:44:32.148Z,3.10
2018-12-05T08:46:59.706Z,2.50
2018-12-05T08:49:27.168Z,9.23
2018-12-05T08:51:54.611Z,2.50
2018-12-05T08:54:22.161Z,4.07
2018-12-05T08:56:49.585Z,5.63
2018-12-05T08:59:17.405Z,10.47
2018-12-05T09:01:44.879Z,10.73
2018-12-05T09:04:12.388Z,15.97
2018-12-05T09:06:39.815Z,13.13
2018-12-05T09:09:07.319Z,20.80
2018-12-05T09:11:34.836Z,25.70
2018-12-05T09:14:02.371Z,19.17
2018-12-05T09:16:29.831Z,18.70
2018-12-05T09:18:57.272Z,24.47
2018-12-05T09:21:24.716Z,23.07
2018-12-05T09:23:52.161Z,24.27
2018-12-05T09:26:19.608Z,20.40
2018-12-05T09:28:47.131Z,19.40
2018-12-05T09:31:14.611Z,28.77
2018-12-05T09:33:42.147Z,19.27
2018-12-05T09:36:09.576Z,26.27
2018-12-05T09:38:37.012Z,22.10
2018-12-05T09:41:04.461Z,20.57
2018-12-05T09:43:31.900Z,27.20
2018-12-05T09:45:59.378Z,31.57
2018-12-05T09:48:26.863Z,37.40
2018-12-05T09:50:54.303Z,33.23
2018-12-05T09:53:21.747Z,34.43
2018-12-05T09:55:49.239Z,34.13
2018-12-05T09:58:16.674Z,33.67
2018-12-05T10:00:44.153Z,32.40
2018-12-05T10:03:11.596Z,38.00
2018-12-05T10:05:39.040Z,29.90
2018-12-05T10:08:06.503Z,45.73
2018-12-05T10:10:33.960Z,33.67
2018-12-05T10:13:01.400Z,39.83
2018-12-05T10:15:28.952Z,44.43
2018-12-05T10:17:56.396Z,40.73
2018-12-05T10:20:23.875Z,40.73
2018-12-05T10:22:51.407Z,48.07
2018-12-05T10:25:18.926Z,45.07
2018-12-05T10:27:46.390Z,53.07
2018-12-05T10:30:13.847Z,47.10
2018-12-05T10:32:41.292Z,64.30
2018-12-05T10:35:08.763Z,45.90
2018-12-05T10:37:36.390Z,55.60
2018-12-05T10:40:04.458Z,52.50
2018-12-05T10:42:31.916Z,52.10
2018-12-05T10:44:59.412Z,51.60
2018-12-05T10:47:26.971Z,56.90
2018-12-05T10:49:54.533Z,54.50
2018-12-05T10:52:22.098Z,46.80
2018-12-05T10:54:49.547Z,46.90
2018-12-05T10:57:17.020Z,48.17
2018-12-05T10:59:44.567Z,46.00
2018-12-05T11:02:17.596Z,58.13
2018-12-05T11:04:50.853Z,51.40
2018-12-05T11:07:23.984Z,41.23
2018-12-05T11:09:57.295Z,51.87
2018-12-05T11:12:30.463Z,56.27
2018-12-05T11:15:03.741Z,39.67
2018-12-05T11:17:36.999Z,43.40
2018-12-05T11:20:11.616Z,37.80
2018-12-05T11:22:44.632Z,41.97
2018-12-05T11:25:12.981Z,31.13
2018-12-05T11:27:40.441Z,39.00
2018-12-05T11:30:07.911Z,39.67
2018-12-05T11:32:35.357Z,25.67
2018-12-05T11:35:02.823Z,32.77
2018-12-05T11:37:30.327Z,36.83
2018-12-05T11:39:57.855Z,37.83
2018-12-05T11:42:25.308Z,33.17
2018-12-05T11:44:52.756Z,29.53
2018-12-05T11:47:20.217Z,30.53
2018-12-05T11:49:47.671Z,29.43
2018-12-05T11:52:15.237Z,30.47
2018-12-05T11:54:42.697Z,30.67
2018-12-05T11:57:10.175Z,25.43
2018-12-05T11:59:37.633Z,28.13
2018-12-05T12:02:05.267Z,24.13
2018-12-05T12:04:32.820Z,27.47
2018-12-05T12:07:00.270Z,23.27
2018-12-05T12:09:27.924Z,68.40
2018-12-05T12:11:55.377Z,43.63
2018-12-05T12:14:22.936Z,29.67
2018-12-05T12:16:50.424Z,158.83
2018-12-05T12:19:17.871Z,67.17
2018-12-05T12:21:45.320Z,53.03
2018-12-05T12:24:12.787Z,116.47
2018-12-05T12:26:40.263Z,63.87
2018-12-05T12:29:07.715Z,61.23
2018-12-05T12:31:35.158Z,52.80
2018-12-05T12:34:02.636Z,46.13
2018-12-05T12:36:30.076Z,49.33
2018-12-05T12:38:57.519Z,42.33
2018-12-05T12:41:25.005Z,61.00
2018-12-05T12:43:52.451Z,50.00
2018-12-05T12:46:19.907Z,33.60
2018-12-05T12:48:47.381Z,66.63
2018-12-05T12:51:14.927Z,65.03
2018-12-05T12:53:42.383Z,49.47
2018-12-05T12:56:09.885Z,52.07
2018-12-05T12:58:37.338Z,39.40
2018-12-05T13:01:04.781Z,88.67
2018-12-05T13:03:32.234Z,57.10
2018-12-05T13:05:59.681Z,50.87
2018-12-05T13:08:27.299Z,41.17
2018-12-05T13:10:54.749Z,40.27
2018-12-05T13:13:23.042Z,33.70
2018-12-05T13:15:50.538Z,142.60
2018-12-05T13:18:19.691Z,51.87
2018-12-05T13:20:47.509Z,43.23
2018-12-05T13:23:15.169Z,68.43
2018-12-05T13:25:42.725Z,47.03
2018-12-05T13:28:12.938Z,48.93
2018-12-05T13:30:40.420Z,39.83
2018-12-05T13:33:07.871Z,43.00
2018-12-05T13:35:35.462Z,40.17
2018-12-05T13:38:02.975Z,36.57
2018-12-05T13:40:30.548Z,37.87
2018-12-05T13:42:57.999Z,34.50
2018-12-05T13:45:25.819Z,38.40
2018-12-05T13:47:53.307Z,50.27
2018-12-05T13:50:20.760Z,43.53
2018-12-05T13:52:48.252Z,37.87
2018-12-05T13:55:15.801Z,40.63
2018-12-05T13:57:43.284Z,52.67
2018-12-05T14:00:10.780Z,45.43
2018-12-05T14:02:38.236Z,53.13
2018-12-05T14:05:05.941Z,45.87
2018-12-05T14:07:33.405Z,52.30
2018-12-05T14:10:00.872Z,38.10
2018-12-05T14:12:30.248Z,100.10
2018-12-05T14:14:57.808Z,105.57
2018-12-05T14:17:25.255Z,50.43
2018-12-05T14:19:52.702Z,50.97
2018-12-05T14:22:20.169Z,155.50
2018-12-05T14:24:47.623Z,90.50
2018-12-05T14:27:15.096Z,138.97
2018-12-05T14:29:42.556Z,130.13
2018-12-05T14:32:10.094Z,79.10
2018-12-05T14:34:37.539Z,65.37
2018-12-05T14:37:05.000Z,60.83
2018-12-05T14:39:32.709Z,75.97
2018-12-05T14:42:00.672Z,96.07
2018-12-05T14:44:28.311Z,84.93
2018-12-05T14:46:55.843Z,65.73
2018-12-05T14:49:23.319Z,77.10
2018-12-05T14:51:50.899Z,79.77
2018-12-05T14:54:18.387Z,77.80
2018-12-05T14:56:45.867Z,84.43
2018-12-05T14:59:13.359Z,86.10
2018-12-05T15:01:40.805Z,78.10
2018-12-05T15:04:08.487Z,73.10
2018-12-05T15:06:36.043Z,102.27
2018-12-05T15:09:05.817Z,86.67
2018-12-05T15:11:33.260Z,89.27
2018-12-05T15:14:00.765Z,214.73
2018-12-05T15:19:08.270Z,82.67
2018-12-05T15:21:35.835Z,94.43
2018-12-05T15:24:03.306Z,64.27
2018-12-05T15:26:30.755Z,62.37
2018-12-05T15:28:58.327Z,66.73
2018-12-05T15:31:25.775Z,69.70
2018-12-05T15:33:53.226Z,52.37
2018-12-05T15:36:20.676Z,62.37
2018-12-05T15:38:48.164Z,59.80
2018-12-05T15:41:15.666Z,61.57
2018-12-05T15:43:43.098Z,58.67
2018-12-05T15:46:10.806Z,57.50
2018-12-05T15:48:38.323Z,59.80
2018-12-05T15:51:05.776Z,46.90
2018-12-05T15:53:33.303Z,48.97
2018-12-05T15:56:00.760Z,54.47
2018-12-05T15:58:28.236Z,51.83
2018-12-05T16:00:55.690Z,50.73
2018-12-05T16:03:23.235Z,50.37
2018-12-05T16:05:50.697Z,56.13
2018-12-05T16:08:18.144Z,47.67
2018-12-05T16:10:45.588Z,47.80
2018-12-05T16:13:13.047Z,54.87
2018-12-05T16:15:40.507Z,46.23
2018-12-05T16:18:07.955Z,37.30
2018-12-05T16:20:35.440Z,46.47
2018-12-05T16:23:02.883Z,47.63
2018-12-05T16:25:30.356Z,44.23
2018-12-05T16:27:57.808Z,47.90
2018-12-05T16:30:25.276Z,49.17
2018-12-05T16:32:52.741Z,54.73
2018-12-05T16:35:20.283Z,54.13
2018-12-05T16:37:47.847Z,47.83
2018-12-05T16:40:15.319Z,49.17
2018-12-05T16:42:42.756Z,40.57
2018-12-05T16:45:10.620Z,53.10
2018-12-05T16:47:38.107Z,47.30
2018-12-05T16:50:06.205Z,88.63
2018-12-05T16:52:35.415Z,77.03
2018-12-05T16:55:03.323Z,54.53
2018-12-05T16:57:30.984Z,69.70
2018-12-05T16:59:58.422Z,69.27
2018-12-05T17:02:25.933Z,62.13
2018-12-05T17:04:53.377Z,59.87
2018-12-05T17:07:20.815Z,48.30
2018-12-05T17:09:48.258Z,48.17
2018-12-05T17:12:16.610Z,50.33
2018-12-05T17:14:44.204Z,47.50
2018-12-05T17:17:11.667Z,88.43
2018-12-05T17:19:39.229Z,49.30
2018-12-05T17:22:06.801Z,58.97
2018-12-05T17:24:34.236Z,128.30
2018-12-05T17:27:01.697Z,132.57
2018-12-05T17:29:29.227Z,50.30
2018-12-05T17:31:56.679Z,59.57
2018-12-05T17:34:24.117Z,39.33
2018-12-05T17:36:51.563Z,41.07
2018-12-05T17:39:19.015Z,59.73
2018-12-05T17:41:46.552Z,56.33
2018-12-05T17:44:14.000Z,41.13
2018-12-05T17:46:41.447Z,41.77
2018-12-05T17:49:08.883Z,43.13
2018-12-05T17:51:36.339Z,39.30
2018-12-05T17:54:03.825Z,38.30
2018-12-05T17:56:31.364Z,42.57
2018-12-05T17:58:58.867Z,48.53
2018-12-05T18:01:26.431Z,49.40
2018-12-05T18:03:53.889Z,48.00
2018-12-05T18:06:21.327Z,41.97
2018-12-05T18:08:48.915Z,38.07
2018-12-05T18:11:16.613Z,24.90
2018-12-05T18:13:44.062Z,30.33
2018-12-05T18:16:11.648Z,48.80
2018-12-05T18:18:39.274Z,46.10
2018-12-05T18:21:07.007Z,32.13
2018-12-05T18:23:34.620Z,40.70
2018-12-05T18:26:02.952Z,46.57
2018-12-05T18:28:30.496Z,32.80
2018-12-05T18:30:58.067Z,42.10
2018-12-05T18:33:25.536Z,32.63
2018-12-05T18:35:53.028Z,36.40
2018-12-05T18:38:20.460Z,30.90
2018-12-05T18:40:47.975Z,32.80
2018-12-05T18:43:15.487Z,31.57
2018-12-05T18:45:43.040Z,35.80
2018-12-05T18:48:10.500Z,35.27
2018-12-05T18:50:37.984Z,33.97
2018-12-05T18:53:05.431Z,33.70
2018-12-05T18:55:32.875Z,26.40
2018-12-05T18:58:00.328Z,31.47
2018-12-05T19:00:28.281Z,32.13
2018-12-05T19:02:55.745Z,30.70
2018-12-05T19:05:23.305Z,29.03
2018-12-05T19:07:50.944Z,31.00
2018-12-05T19:10:18.465Z,36.10
2018-12-05T19:12:45.955Z,27.20
2018-12-05T19:15:13.412Z,27.10
2018-12-05T19:17:40.875Z,24.43
2018-12-05T19:20:08.347Z,26.43
2018-12-05T19:22:35.872Z,28.77
2018-12-05T19:25:03.442Z,22.90
2018-12-05T19:27:30.983Z,21.77
2018-12-05T19:29:58.484Z,27.40
2018-12-05T19:32:25.939Z,23.13
2018-12-05T19:34:53.571Z,21.23
2018-12-05T19:37:21.019Z,24.07
2018-12-05T19:39:48.608Z,21.33
2018-12-05T19:42:16.122Z,21.50
2018-12-05T19:44:43.607Z,17.80
2018-12-05T19:47:11.132Z,17.23
2018-12-05T19:49:38.554Z,19.97
2018-12-05T19:52:06.192Z,23.80
2018-12-05T19:54:34.016Z,17.20
2018-12-05T19:57:01.508Z,17.63
2018-12-05T19:59:29.043Z,18.77
2018-12-05T20:01:56.499Z,15.97
2018-12-05T20:04:23.984Z,16.83
2018-12-05T20:06:51.452Z,19.67
2018-12-05T20:09:19.786Z,20.03
2018-12-05T20:11:47.299Z,17.77
2018-12-05T20:14:29.521Z,17.57
2018-12-05T20:16:57.036Z,20.70
2018-12-05T20:19:24.567Z,17.07
2018-12-05T20:21:52.200Z,13.90
2018-12-05T20:24:19.735Z,17.00
2018-12-05T20:26:47.179Z,14.13
2018-12-05T20:29:14.645Z,18.17
2018-12-05T20:31:42.375Z,14.57
2018-12-05T20:34:09.824Z,16.70
2018-12-05T20:36:37.307Z,16.93
2018-12-05T20:39:08.992Z,15.97
2018-12-05T20:41:36.663Z,13.37
2018-12-05T20:44:04.192Z,15.77
2018-12-05T20:46:31.647Z,13.40
2018-12-05T20:48:59.204Z,13.40
2018-12-05T20:51:26.725Z,15.90
2018-12-05T20:53:54.266Z,14.87
2018-12-05T20:56:21.707Z,15.40
2018-12-05T20:58:49.439Z,13.60
2018-12-05T21:01:16.883Z,17.03
2018-12-05T21:03:44.353Z,12.43
2018-12-05T21:06:11.795Z,10.60
2018-12-05T21:08:39.231Z,11.00
2018-12-05T21:11:06.728Z,14.80
2018-12-05T21:13:34.180Z,13.17
2018-12-05T21:16:01.708Z,11.10
2018-12-05T21:18:29.207Z,9.43
2018-12-05T21:20:56.666Z,11.40
2018-12-05T21:23:24.227Z,11.70
2018-12-05T21:25:51.780Z,14.37
2018-12-05T21:28:19.339Z,13.83
2018-12-05T21:30:46.808Z,12.73
2018-12-05T21:33:14.276Z,12.67
2018-12-05T21:35:41.700Z,11.37
2018-12-05T21:38:09.215Z,12.10
2018-12-05T21:40:36.743Z,12.83
2018-12-05T21:43:04.627Z,10.90
2018-12-05T21:45:32.098Z,13.93
2018-12-05T21:47:59.540Z,10.67
2018-12-05T21:50:27.067Z,10.90
2018-12-05T21:52:54.515Z,15.30
2018-12-05T21:55:21.980Z,11.77
2018-12-05T21:57:49.426Z,11.27
2018-12-05T22:00:17.103Z,12.10
2018-12-05T22:02:44.543Z,17.13
2018-12-05T22:05:12.121Z,18.70
2018-12-05T22:07:39.579Z,17.17
2018-12-05T22:10:07.655Z,14.13
2018-12-05T22:12:35.223Z,19.10
2018-12-05T22:15:02.891Z,14.80
2018-12-05T22:17:30.435Z,12.50
2018-12-05T22:19:57.995Z,18.27
2018-12-05T22:22:25.440Z,16.40
2018-12-05T22:24:52.906Z,12.33
2018-12-05T22:27:20.468Z,14.30
2018-12-05T22:29:47.912Z,14.37
2018-12-05T22:32:15.379Z,10.30
2018-12-05T22:34:42.836Z,13.33
2018-12-05T22:37:10.291Z,15.10
2018-12-05T22:39:37.740Z,14.30
2018-12-05T22:42:05.192Z,14.87
2018-12-05T22:44:32.663Z,10.57
2018-12-05T22:47:00.316Z,13.73
2018-12-05T22:49:27.788Z,12.33
2018-12-05T22:51:55.295Z,12.13
2018-12-05T22:54:22.751Z,13.13
2018-12-05T22:57:02.345Z,15.27
2018-12-05T22:59:29.903Z,13.53
2018-12-05T23:01:57.351Z,13.77
2018-12-05T23:04:24.819Z,10.23
2018-12-05T23:06:52.258Z,10.70
2018-12-05T23:09:19.719Z,11.27
2018-12-05T23:11:47.147Z,10.53
2018-12-05T23:14:14.651Z,12.73
2018-12-05T23:16:42.215Z,10.47
2018-12-05T23:19:09.656Z,10.97
2018-12-05T23:21:37.105Z,11.33
2018-12-05T23:24:04.580Z,12.17
2018-12-05T23:26:32.145Z,10.20
2018-12-05T23:28:59.588Z,10.17
2018-12-05T23:31:27.148Z,9.57
2018-12-05T23:33:54.592Z,10.90
2018-12-05T23:36:22.074Z,11.87
2018-12-05T23:38:49.524Z,10.37
2018-12-05T23:41:17.089Z,10.57
2018-12-05T23:43:44.543Z,8.00
2018-12-05T23:46:11.983Z,10.67
2018-12-05T23:48:39.431Z,9.43
2018-12-05T23:51:06.927Z,11.83
2018-12-05T23:53:34.378Z,10.97
2018-12-05T23:56:01.815Z,9.87
2018-12-05T23:58:29.607Z,10.83
